Time;durP1;ratioP1;P1;durP2;ratioP2;P2;SDS_P1;SDS_P2;PMS_P1;PMS_P2;Temp;Humidity;BMP_temperature;BMP_pressure;BME280_temperature;BME280_humidity;BME280_pressure;Samples;Min_cycle;Max_cycle;Signal;HPM_P1;HPM_P2
2022/04/07 00:01:03;;;;;;;20.12;3.85;;;;;;;;;;4412256;32;20008;-81
2022/04/07 00:03:28;;;;;;;15.20;4.03;;;;;;;;;;4413040;32;20078;-81
2022/04/07 00:05:53;;;;;;;;;;;;;;;;;;4408901;32;20022;-81
2022/04/07 00:08:19;;;;;;;20.23;5.18;;;;;;;;;;4430999;32;19969;-81
2022/04/07 00:10:48;;;;;;;13.55;4.45;;;;;;;;;;4438335;32;20087;-82
2022/04/07 00:13:25;;;;;;;15.63;3.28;;;;;;;;;;4438203;32;20030;-82
2022/04/07 00:15:52;;;;;;;18.55;5.28;;;;;;;;;;4425000;32;20065;-82
2022/04/07 00:18:18;;;;;;;16.45;3.67;;;;;;;;;;4408423;32;20022;-82
2022/04/07 00:20:43;;;;;;;;;;;;;;;;;;4409365;32;20093;-82
2022/04/07 00:23:40;;;;;;;19.60;5.05;;;;;;;;;;4407446;32;19933;-83
2022/04/07 00:26:11;;;;;;;12.65;3.40;;;;;;;;;;4419559;32;20029;-84
2022/04/07 00:28:40;;;;;;;17.92;4.32;;;;;;;;;;4408896;32;20019;-84
2022/04/07 00:31:11;;;;;;;20.00;3.95;;;;;;;;;;4408215;32;20170;-84
2022/04/07 00:33:37;;;;;;;21.20;3.72;;;;;;;;;;4408420;32;20072;-83
2022/04/07 00:36:05;;;;;;;;;;;;;;;;;;4422405;32;20477;-83
2022/04/07 00:41:24;;;;;;;21.20;3.37;;;;;;;;;;4425018;32;20068;-84
2022/04/07 00:43:50;;;;;;;17.33;4.43;;;;;;;;;;4437612;32;20041;-83
2022/04/07 00:46:15;;;;;;;22.67;3.72;;;;;;;;;;4437212;32;20048;-83
2022/04/07 00:48:47;;;;;;;;;;;;;;;;;;4437898;32;20392;-84
2022/04/07 00:51:15;;;;;;;14.55;3.70;;;;;;;;;;4437090;32;20374;-84
2022/04/07 00:53:40;;;;;;;20.27;5.10;;;;;;;;;;4437618;32;20029;-84
2022/04/07 00:56:09;;;;;;;;;;;;;;;;;;4438078;32;20052;-83
2022/04/07 00:58:53;;;;;;;23.95;5.90;;;;;;;;;;4436627;32;19964;-83
2022/04/07 01:01:46;;;;;;;19.10;4.90;;;;;;;;;;4436932;32;20461;-83
2022/04/07 01:04:15;;;;;;;23.85;4.78;;;;;;;;;;4414174;32;20060;-84
2022/04/07 01:06:55;;;;;;;17.65;4.82;;;;;;;;;;4422933;32;20021;-83
2022/04/07 01:09:31;;;;;;;18.58;6.12;;;;;;;;;;4423063;32;20067;-84
2022/04/07 01:15:00;;;;;;;21.77;5.20;;;;;;;;;;4429625;32;20112;-84
2022/04/07 01:17:43;;;;;;;21.67;6.05;;;;;;;;;;4422848;32;20092;-83
2022/04/07 01:20:08;;;;;;;19.25;5.65;;;;;;;;;;4423043;32;20026;-84
2022/04/07 01:22:34;;;;;;;;;;;;;;;;;;4422828;32;20402;-84
2022/04/07 01:25:26;;;;;;;23.45;5.72;;;;;;;;;;4437838;32;19973;-84
2022/04/07 01:28:03;;;;;;;20.98;4.85;;;;;;;;;;4423341;32;20047;-83
2022/04/07 01:30:39;;;;;;;22.73;4.85;;;;;;;;;;4422911;32;20018;-84
2022/04/07 01:33:28;;;;;;;23.35;5.90;;;;;;;;;;4421816;32;20018;-84
2022/04/07 01:35:54;;;;;;;21.45;5.37;;;;;;;;;;4437314;32;20037;-83
2022/04/07 01:38:20;;;;;;;;;;;;;;;;;;4422638;32;20467;-83
2022/04/07 01:40:54;;;;;;;28.58;5.37;;;;;;;;;;4419902;32;19937;-84
2022/04/07 01:43:40;;;;;;;28.17;6.40;;;;;;;;;;4421300;32;20081;-84
2022/04/07 01:46:12;;;;;;;14.65;4.25;;;;;;;;;;4422660;32;20415;-83
2022/04/07 01:48:37;;;;;;;26.23;4.85;;;;;;;;;;4423993;32;20026;-83
2022/04/07 01:51:02;;;;;;;;;;;;;;;;;;4420616;32;20034;-84
2022/04/07 01:53:31;;;;;;;29.80;6.68;;;;;;;;;;4422324;32;19933;-84
2022/04/07 01:55:57;;;;;;;28.45;4.78;;;;;;;;;;4420575;32;20041;-82
2022/04/07 01:58:22;;;;;;;;;;;;;;;;;;4416642;32;20082;-77
2022/04/07 02:00:47;;;;;;;27.90;6.03;;;;;;;;;;4405636;32;19938;-81
2022/04/07 02:03:12;;;;;;;;;;;;;;;;;;4417882;32;20038;-82
2022/04/07 02:05:40;;;;;;;21.05;5.90;;;;;;;;;;4419995;32;19941;-83
2022/04/07 02:08:06;;;;;;;23.33;5.20;;;;;;;;;;4420737;32;20080;-80
2022/04/07 02:10:32;;;;;;;;;;;;;;;;;;4421296;32;20505;-79
2022/04/07 02:13:00;;;;;;;23.90;4.12;;;;;;;;;;4418056;32;19952;-81
2022/04/07 02:15:26;;;;;;;25.05;4.97;;;;;;;;;;4420512;32;20034;-83
2022/04/07 02:18:00;;;;;;;;;;;;;;;;;;4420814;32;20412;-81
2022/04/07 02:20:49;;;;;;;29.08;7.28;;;;;;;;;;4419042;32;19948;-81
2022/04/07 02:23:44;;;;;;;;;;;;;;;;;;;;;
2022/04/07 02:26:16;;;;;;;31.33;6.43;;;;;;;;;;4420474;32;20033;-84
2022/04/07 02:28:51;;;;;;;29.58;5.35;;;;;;;;;;4415406;32;20573;-83
2022/04/07 02:31:19;;;;;;;25.15;5.85;;;;;;;;;;4404612;32;20301;-84
2022/04/07 02:33:46;;;;;;;31.12;5.55;;;;;;;;;;4405129;32;20034;-83
2022/04/07 02:36:40;;;;;;;22.65;4.43;;;;;;;;;;4406738;32;20029;-84
2022/04/07 02:39:17;;;;;;;25.30;6.62;;;;;;;;;;4409970;32;20034;-84
2022/04/07 02:41:43;;;;;;;25.98;4.87;;;;;;;;;;4430528;32;20186;-84
2022/04/07 02:44:08;;;;;;;;;;;;;;;;;;4421999;32;20029;-84
2022/04/07 02:46:46;;;;;;;24.98;4.97;;;;;;;;;;4421795;32;19969;-84
2022/04/07 02:49:14;;;;;;;28.52;5.20;;;;;;;;;;4435761;32;20056;-84
2022/04/07 02:51:42;;;;;;;19.67;4.50;;;;;;;;;;4436103;32;20064;-84
2022/04/07 02:54:28;;;;;;;29.05;5.15;;;;;;;;;;4422181;32;20021;-83
2022/04/07 02:57:01;;;;;;;29.60;6.15;;;;;;;;;;4421510;32;20034;-83
2022/04/07 02:59:49;;;;;;;30.75;6.18;;;;;;;;;;4421603;32;20062;-83
2022/04/07 03:02:17;;;;;;;31.45;6.30;;;;;;;;;;4422365;32;20040;-84
2022/04/07 03:04:48;;;;;;;32.35;6.18;;;;;;;;;;4421512;32;20065;-83
2022/04/07 03:07:13;;;;;;;36.40;8.02;;;;;;;;;;4422304;32;20085;-83
2022/04/07 03:09:46;;;;;;;;;;;;;;;;;;4435908;32;20025;-83
2022/04/07 03:12:23;;;;;;;29.35;5.47;;;;;;;;;;4421810;32;19933;-85
2022/04/07 03:18:03;;;;;;;29.67;7.22;;;;;;;;;;4358086;33;20323;-83
2022/04/07 03:20:33;;;;;;;26.20;5.85;;;;;;;;;;4430160;32;20475;-83
2022/04/07 03:23:17;;;;;;;26.08;6.00;;;;;;;;;;4440803;32;20067;-83
2022/04/07 03:26:18;;;;;;;21.83;5.72;;;;;;;;;;4451572;32;20074;-82
2022/04/07 03:28:39;;;;;;;33.72;5.75;;;;;;;;;;4449145;32;20372;-84
2022/04/07 03:31:05;;;;;;;34.35;6.40;;;;;;;;;;4424741;32;20097;-84
2022/04/07 03:33:35;;;;;;;;;;;;;;;;;;4434497;32;20034;-84
2022/04/07 03:36:09;;;;;;;26.12;5.65;;;;;;;;;;4423283;32;19961;-84
2022/04/07 03:38:38;;;;;;;31.17;5.90;;;;;;;;;;4423320;32;20093;-86
2022/04/07 03:41:09;;;;;;;30.48;6.32;;;;;;;;;;4416038;32;20061;-84
2022/04/07 03:43:42;;;;;;;29.55;6.28;;;;;;;;;;4423606;32;20026;-84
2022/04/07 03:46:13;;;;;;;34.53;6.12;;;;;;;;;;4423255;32;20026;-83
2022/04/07 03:48:45;;;;;;;39.58;7.12;;;;;;;;;;4409303;32;20393;-83
2022/04/07 03:51:17;;;;;;;30.73;5.37;;;;;;;;;;4432186;32;20105;-82
2022/04/07 03:53:42;;;;;;;30.80;6.95;;;;;;;;;;4408909;32;20072;-82
2022/04/07 03:56:07;;;;;;;;;;;;;;;;;;4423156;32;20030;-81
2022/04/07 03:58:33;;;;;;;27.25;4.90;;;;;;;;;;4433965;32;19994;-81
2022/04/07 04:00:58;;;;;;;;;;;;;;;;;;4447555;32;20199;-84
2022/04/07 04:03:44;;;;;;;36.58;5.35;;;;;;;;;;4424755;32;19937;-82
2022/04/07 04:06:12;;;;;;;31.00;5.50;;;;;;;;;;4424364;32;20055;-83
2022/04/07 04:08:37;;;;;;;31.73;5.00;;;;;;;;;;4438367;32;20359;-85
2022/04/07 04:11:02;;;;;;;;;;;;;;;;;;4437959;32;20022;-84
2022/04/07 04:13:29;;;;;;;25.58;5.05;;;;;;;;;;4438032;32;19937;-83
2022/04/07 04:15:55;;;;;;;34.85;7.47;;;;;;;;;;4437806;32;20147;-85
2022/04/07 04:18:21;;;;;;;17.05;4.57;;;;;;;;;;4423423;32;20064;-83
2022/04/07 04:20:48;;;;;;;;;;;;;;;;;;4410159;32;20371;-83
2022/04/07 04:23:14;;;;;;;21.48;4.47;;;;;;;;;;4408402;32;19933;-82
2022/04/07 04:25:39;;;;;;;;;;;;;;;;;;4408502;32;20393;-81
2022/04/07 04:28:04;;;;;;;25.20;4.78;;;;;;;;;;4408235;32;19945;-83
2022/04/07 04:30:30;;;;;;;;;;;;;;;;;;4423066;32;20484;-79
2022/04/07 04:32:55;;;;;;;20.92;3.67;;;;;;;;;;4423341;32;20011;-80
2022/04/07 04:35:20;;;;;;;;;;;;;;;;;;4422914;32;20026;-78
2022/04/07 04:37:46;;;;;;;19.33;5.25;;;;;;;;;;4412036;32;20259;-78
2022/04/07 04:40:11;;;;;;;;;;;;;;;;;;4404233;32;20026;-80
2022/04/07 04:42:40;;;;;;;22.67;3.22;;;;;;;;;;4411434;32;19988;-81
2022/04/07 04:45:07;;;;;;;18.70;3.87;;;;;;;;;;4414605;32;20399;-80
2022/04/07 04:47:32;;;;;;;13.82;3.85;;;;;;;;;;4407966;32;20080;-78
2022/04/07 04:49:57;;;;;;;;;;;;;;;;;;4415295;32;20025;-77
2022/04/07 04:52:23;;;;;;;19.02;3.95;;;;;;;;;;4434352;32;20315;-79
2022/04/07 04:54:48;;;;;;;;;;;;;;;;;;4419751;32;20022;-80
2022/04/07 04:57:13;;;;;;;18.27;4.60;;;;;;;;;;4407924;32;19941;-76
2022/04/07 04:59:38;;;;;;;;;;;;;;;;;;4422066;32;20355;-77
2022/04/07 05:02:06;;;;;;;21.78;5.08;;;;;;;;;;4436144;32;19932;-79
2022/04/07 05:04:31;;;;;;;20.10;4.20;;;;;;;;;;4422573;32;20074;-80
2022/04/07 05:06:59;;;;;;;;;;;;;;;;;;4419926;32;20370;-81
2022/04/07 05:09:28;;;;;;;13.80;3.45;;;;;;;;;;4417860;32;19985;-79
2022/04/07 05:11:53;;;;;;;14.25;3.58;;;;;;;;;;4422708;32;20417;-76
2022/04/07 05:14:18;;;;;;;;;;;;;;;;;;4433557;32;20026;-79
2022/04/07 05:16:43;;;;;;;15.02;3.42;;;;;;;;;;4422521;32;19967;-79
2022/04/07 05:19:08;;;;;;;;;;;;;;;;;;4422648;32;20160;-80
2022/04/07 05:21:44;;;;;;;15.80;4.12;;;;;;;;;;4407965;32;19941;-79
2022/04/07 05:24:18;;;;;;;17.47;5.17;;;;;;;;;;4421428;32;20148;-79
2022/04/07 05:26:47;;;;;;;15.48;3.53;;;;;;;;;;4421394;32;20044;-79
2022/04/07 05:29:12;;;;;;;20.33;4.07;;;;;;;;;;4421441;32;20548;-74
2022/04/07 05:31:43;;;;;;;;;;;;;;;;;;4407592;32;20025;-79
2022/04/07 05:34:08;;;;;;;20.37;4.05;;;;;;;;;;4407209;32;19933;-76
2022/04/07 05:36:33;;;;;;;;;;;;;;;;;;4421264;32;20042;-80
2022/04/07 05:38:58;;;;;;;21.77;4.70;;;;;;;;;;4421343;32;19952;-78
2022/04/07 05:41:23;;;;;;;;;;;;;;;;;;4407353;32;20457;-79
2022/04/07 05:43:49;;;;;;;6.45;1.92;;;;;;;;;;4407194;32;19949;-76
2022/04/07 05:46:14;;;;;;;;;;;;;;;;;;4408258;32;20034;-78
2022/04/07 05:48:39;;;;;;;18.52;1.87;;;;;;;;;;4407887;32;20351;-78
2022/04/07 05:51:04;;;;;;;;;;;;;;;;;;4437498;32;20074;-78
2022/04/07 05:53:30;;;;;;;4.55;1.33;;;;;;;;;;4422547;32;20025;-79
2022/04/07 05:55:55;;;;;;;;;;;;;;;;;;4436678;32;20067;-77
2022/04/07 05:58:21;;;;;;;10.68;1.80;;;;;;;;;;4421916;32;19996;-78
2022/04/07 06:00:46;;;;;;;;;;;;;;;;;;4435782;32;20125;-78
2022/04/07 06:03:11;;;;;;;10.46;2.26;;;;;;;;;;4436239;32;19937;-77
2022/04/07 06:05:36;;;;;;;;;;;;;;;;;;4437020;32;20025;-79
2022/04/07 06:08:02;;;;;;;18.23;3.60;;;;;;;;;;4435961;32;19944;-77
2022/04/07 06:10:28;;;;;;;;;;;;;;;;;;4435999;32;20132;-79
2022/04/07 06:12:53;;;;;;;19.55;3.67;;;;;;;;;;4432377;32;20014;-79
2022/04/07 06:15:18;;;;;;;;;;;;;;;;;;4407100;32;20144;-76
2022/04/07 06:17:47;;;;;;;27.62;4.12;;;;;;;;;;4406734;32;20367;-81
2022/04/07 06:20:13;;;;;;;23.70;3.20;;;;;;;;;;4407251;32;20160;-79
2022/04/07 06:22:38;;;;;;;;;;;;;;;;;;4421155;32;20481;-78
2022/04/07 06:25:09;;;;;;;19.27;2.80;;;;;;;;;;4430162;32;19950;-81
2022/04/07 06:27:38;;;;;;;21.48;3.40;;;;;;;;;;4435956;32;20028;-78
2022/04/07 06:30:04;;;;;;;16.92;3.33;;;;;;;;;;4435119;32;20030;-78
2022/04/07 06:32:30;;;;;;;;;;;;;;;;;;4435671;32;20179;-80
2022/04/07 06:34:55;;;;;;;16.83;3.00;;;;;;;;;;4435313;32;19937;-77
2022/04/07 06:37:20;;;;;;;;;;;;;;;;;;4435967;32;20152;-81
2022/04/07 06:39:45;;;;;;;13.23;2.67;;;;;;;;;;4435095;32;19960;-78
2022/04/07 06:42:13;;;;;;;;;;;;;;;;;;4436179;32;20049;-79
2022/04/07 06:44:38;;;;;;;16.85;2.47;;;;;;;;;;4410992;32;19941;-76
2022/04/07 06:47:04;;;;;;;14.45;2.97;;;;;;;;;;4414388;32;20025;-79
2022/04/07 06:49:29;;;;;;;;;;;;;;;;;;4422155;32;20147;-79
2022/04/07 06:51:54;;;;;;;6.85;2.47;;;;;;;;;;4436109;32;20328;-76
2022/04/07 06:54:20;;;;;;;;;;;;;;;;;;4436389;32;20060;-77
2022/04/07 06:56:46;;;;;;;11.30;2.20;;;;;;;;;;4420435;32;19948;-80
2022/04/07 06:59:11;;;;;;;;;;;;;;;;;;4435095;32;20457;-77
2022/04/07 07:01:36;;;;;;;11.98;2.47;;;;;;;;;;4420764;32;19951;-81
2022/04/07 07:04:01;;;;;;;10.77;2.30;;;;;;;;;;4434954;32;20030;-77
2022/04/07 07:06:29;;;;;;;;;;;;;;;;;;4435470;32;20022;-80
2022/04/07 07:08:55;;;;;;;9.32;1.92;;;;;;;;;;4438579;32;19952;-75
2022/04/07 07:11:20;;;;;;;;;;;;;;;;;;4425000;32;20021;-80
2022/04/07 07:13:45;;;;;;;6.65;1.73;;;;;;;;;;4437871;32;20348;-75
2022/04/07 07:16:10;;;;;;;;;;;;;;;;;;4438516;32;20170;-76
2022/04/07 07:18:38;;;;;;;8.93;2.70;;;;;;;;;;4438399;32;19956;-76
2022/04/07 07:21:03;;;;;;;9.13;1.98;;;;;;;;;;4424072;32;20026;-77
2022/04/07 07:23:28;;;;;;;;;;;;;;;;;;4438724;32;20021;-74
2022/04/07 07:25:53;;;;;;;7.62;1.45;;;;;;;;;;4438329;32;20302;-77
2022/04/07 07:28:19;;;;;;;;;;;;;;;;;;4438604;32;20071;-75
2022/04/07 07:30:44;;;;;;;11.48;2.42;;;;;;;;;;4438317;32;19933;-76
2022/04/07 07:33:10;;;;;;;;;;;;;;;;;;4438329;32;20185;-74
2022/04/07 07:35:35;;;;;;;10.77;2.03;;;;;;;;;;4437677;32;19947;-80
2022/04/07 07:38:01;;;;;;;;;;;;;;;;;;4438693;32;20026;-73
2022/04/07 07:40:27;;;;;;;10.38;2.53;;;;;;;;;;4439342;32;20262;-76
2022/04/07 07:42:56;;;;;;;4.68;2.40;;;;;;;;;;4437960;32;20450;-76
2022/04/07 07:45:21;;;;;;;9.57;2.60;;;;;;;;;;4435220;32;20038;-76
2022/04/07 07:47:46;;;;;;;;;;;;;;;;;;4423468;32;20029;-77
2022/04/07 07:50:12;;;;;;;6.82;1.98;;;;;;;;;;4423287;32;19938;-74
2022/04/07 07:52:37;;;;;;;;;;;;;;;;;;4427416;32;20459;-75
2022/04/07 07:55:02;;;;;;;9.82;1.95;;;;;;;;;;4425914;32;19959;-76
2022/04/07 07:57:28;;;;;;;;;;;;;;;;;;4423014;32;20507;-75
2022/04/07 07:59:53;;;;;;;9.85;1.90;;;;;;;;;;4422308;32;19947;-76
2022/04/07 08:02:18;;;;;;;;;;;;;;;;;;4429623;32;20168;-75
2022/04/07 08:04:44;;;;;;;6.18;1.70;;;;;;;;;;4437545;32;19953;-76
2022/04/07 08:07:09;;;;;;;;;;;;;;;;;;4438697;32;20422;-80
2022/04/07 08:09:34;;;;;;;10.90;2.48;;;;;;;;;;4437814;32;19947;-76
2022/04/07 08:11:59;;;;;;;;;;;;;;;;;;4437866;32;20026;-79
2022/04/07 08:14:36;;;;;;;6.07;1.55;;;;;;;;;;4437615;32;19952;-79
2022/04/07 08:17:02;;;;;;;11.25;3.05;;;;;;;;;;4437369;32;20197;-79
2022/04/07 08:19:27;;;;;;;;;;;;;;;;;;4419791;32;20412;-80
2022/04/07 08:21:53;;;;;;;5.85;1.98;;;;;;;;;;4422383;32;20329;-80
2022/04/07 08:24:19;;;;;;;;;;;;;;;;;;4422540;32;20539;-80
2022/04/07 08:26:57;;;;;;;11.55;2.25;;;;;;;;;;4420913;32;19974;-81
2022/04/07 08:29:39;;;;;;;7.35;1.98;;;;;;;;;;4421775;32;20069;-81
2022/04/07 08:32:15;;;;;;;8.05;1.62;;;;;;;;;;4422760;32;20048;-81
2022/04/07 08:34:40;;;;;;;8.20;2.00;;;;;;;;;;4423004;32;20041;-81
2022/04/07 08:37:08;;;;;;;;;;;;;;;;;;4422974;32;20026;-82
2022/04/07 08:39:39;;;;;;;7.28;2.00;;;;;;;;;;4421528;32;19933;-83
2022/04/07 08:42:04;;;;;;;14.27;2.87;;;;;;;;;;4422128;32;20064;-83
2022/04/07 08:44:32;;;;;;;;;;;;;;;;;;4423684;32;20022;-81
2022/04/07 08:47:04;;;;;;;10.82;1.83;;;;;;;;;;4422976;32;19934;-82
2022/04/07 08:49:44;;;;;;;;;;;;;;;;;;;;;
2022/04/07 08:52:21;;;;;;;9.13;1.75;;;;;;;;;;4423973;32;20058;-81
2022/04/07 08:54:47;;;;;;;14.93;3.45;;;;;;;;;;4421714;32;20029;-82
2022/04/07 08:57:12;;;;;;;;;;;;;;;;;;4423380;32;20508;-82
2022/04/07 08:59:38;;;;;;;7.53;2.08;;;;;;;;;;4422136;32;19980;-82
2022/04/07 09:02:03;;;;;;;;;;;;;;;;;;4422413;32;20201;-82
2022/04/07 09:04:29;;;;;;;11.38;2.45;;;;;;;;;;4421087;32;19949;-83
2022/04/07 09:06:54;;;;;;;;;;;;;;;;;;4423066;32;20038;-82
2022/04/07 09:09:20;;;;;;;9.70;1.60;;;;;;;;;;4421026;32;19975;-82
2022/04/07 09:11:49;;;;;;;20.98;2.50;;;;;;;;;;4423322;32;20134;-82
2022/04/07 09:14:14;;;;;;;10.23;2.53;;;;;;;;;;4437272;32;20097;-82
2022/04/07 09:16:40;;;;;;;;;;;;;;;;;;4437350;32;20408;-82
2022/04/07 09:19:06;;;;;;;10.93;2.17;;;;;;;;;;4436847;32;19956;-82
2022/04/07 09:21:37;;;;;;;;;;;;;;;;;;4437131;32;20053;-80
2022/04/07 09:24:05;;;;;;;14.13;2.95;;;;;;;;;;4436793;32;20361;-83
2022/04/07 09:26:39;;;;;;;11.80;2.35;;;;;;;;;;4436560;32;20071;-83
2022/04/07 09:29:14;;;;;;;8.32;2.25;;;;;;;;;;4422765;32;20025;-82
2022/04/07 09:31:49;;;;;;;13.48;3.47;;;;;;;;;;4422360;32;20445;-84
2022/04/07 09:34:17;;;;;;;11.77;2.40;;;;;;;;;;4436720;32;20029;-83
2022/04/07 09:36:42;;;;;;;11.63;2.72;;;;;;;;;;4436390;32;20034;-80
2022/04/07 09:39:36;;;;;;;;;;;;;;;;;;4422610;32;20057;-82
2022/04/07 09:41:53;;;;;;;16.17;2.62;;;;;;;;;;4432806;32;19984;-83
2022/04/07 09:44:18;;;;;;;;;;;;;;;;;;4422353;32;20075;-82
2022/04/07 09:47:20;;;;;;;14.40;3.58;;;;;;;;;;4436795;32;20334;-82
2022/04/07 09:49:39;;;;;;;13.40;2.97;;;;;;;;;;4434614;32;20037;-82
2022/04/07 09:52:05;;;;;;;;;;;;;;;;;;4425187;32;20115;-81
2022/04/07 09:54:32;;;;;;;16.92;4.28;;;;;;;;;;4428716;32;20317;-82
2022/04/07 09:57:20;;;;;;;15.80;3.42;;;;;;;;;;4408526;32;20034;-82
2022/04/07 09:59:46;;;;;;;16.00;3.55;;;;;;;;;;4427213;32;20065;-80
2022/04/07 10:02:11;;;;;;;;;;;;;;;;;;4446463;32;20045;-82
2022/04/07 10:04:37;;;;;;;12.70;3.90;;;;;;;;;;4416377;32;19942;-85
2022/04/07 10:07:04;;;;;;;;;;;;;;;;;;4432415;32;20407;-84
2022/04/07 10:09:36;;;;;;;17.05;3.58;;;;;;;;;;4434877;32;19941;-81
2022/04/07 10:12:02;;;;;;;20.25;3.78;;;;;;;;;;4419926;32;20100;-83
2022/04/07 10:14:33;;;;;;;18.95;3.95;;;;;;;;;;4424743;32;20081;-81
2022/04/07 10:16:58;;;;;;;17.17;3.58;;;;;;;;;;4427126;32;20017;-81
2022/04/07 10:19:23;;;;;;;;;;;;;;;;;;4428617;32;20026;-78
2022/04/07 10:22:01;;;;;;;19.87;4.28;;;;;;;;;;4450792;32;19932;-82
2022/04/07 10:24:35;;;;;;;20.25;3.40;;;;;;;;;;4445664;32;20117;-81
2022/04/07 10:27:02;;;;;;;25.30;4.12;;;;;;;;;;4434377;32;20025;-82
2022/04/07 10:29:30;;;;;;;18.48;3.65;;;;;;;;;;4433486;32;20037;-84
2022/04/07 10:32:11;;;;;;;13.27;3.22;;;;;;;;;;4421807;32;20038;-80
2022/04/07 10:34:42;;;;;;;14.25;3.00;;;;;;;;;;4419161;32;20358;-85
2022/04/07 10:37:11;;;;;;;18.05;4.35;;;;;;;;;;4437971;32;20028;-84
2022/04/07 10:39:41;;;;;;;16.50;3.80;;;;;;;;;;4433572;32;20444;-81
2022/04/07 10:42:06;;;;;;;19.02;4.60;;;;;;;;;;4434381;32;20042;-84
2022/04/07 10:44:31;;;;;;;;;;;;;;;;;;4422065;32;20045;-83
2022/04/07 10:50:32;;;;;;;14.52;3.80;;;;;;;;;;4372669;32;20124;-83
2022/04/07 10:53:17;;;;;;;16.40;4.03;;;;;;;;;;4398133;32;20034;-81
2022/04/07 10:55:59;;;;;;;24.48;4.22;;;;;;;;;;4410384;32;20053;-82
2022/04/07 10:58:45;;;;;;;16.58;4.72;;;;;;;;;;4439127;32;20331;-86
2022/04/07 11:01:14;;;;;;;24.58;5.37;;;;;;;;;;4424043;32;20038;-82
2022/04/07 11:03:43;;;;;;;19.95;3.97;;;;;;;;;;4428187;32;20086;-88
2022/04/07 11:06:12;;;;;;;19.87;4.70;;;;;;;;;;4417706;32;20037;-83
2022/04/07 11:08:40;;;;;;;15.80;3.65;;;;;;;;;;4442881;32;20033;-81
2022/04/07 11:11:05;;;;;;;29.23;4.43;;;;;;;;;;4423301;32;20046;-82
2022/04/07 11:13:39;;;;;;;;;;;;;;;;;;4420845;32;20026;-82
2022/04/07 11:16:12;;;;;;;12.32;3.03;;;;;;;;;;4421404;32;19932;-81
2022/04/07 11:18:56;;;;;;;23.05;3.95;;;;;;;;;;4410056;32;20064;-82
2022/04/07 11:21:21;;;;;;;18.37;3.92;;;;;;;;;;4420617;32;20034;-82
2022/04/07 11:23:46;;;;;;;;;;;;;;;;;;4436216;32;20030;-80
2022/04/07 11:26:12;;;;;;;14.60;3.80;;;;;;;;;;4432002;32;19947;-83
2022/04/07 11:28:38;;;;;;;21.50;4.15;;;;;;;;;;4417487;32;20444;-85
2022/04/07 11:31:07;;;;;;;;;;;;;;;;;;4428406;32;20057;-85
2022/04/07 11:33:36;;;;;;;15.93;3.75;;;;;;;;;;4444206;32;19999;-88
2022/04/07 11:36:10;;;;;;;17.62;3.80;;;;;;;;;;4426103;32;20030;-83
2022/04/07 11:38:37;;;;;;;19.52;3.87;;;;;;;;;;4420679;32;20041;-83
2022/04/07 11:41:03;;;;;;;19.25;3.92;;;;;;;;;;4439817;32;20063;-84
2022/04/07 11:43:30;;;;;;;17.12;3.50;;;;;;;;;;4450526;32;20021;-80
2022/04/07 11:45:55;;;;;;;23.38;4.18;;;;;;;;;;4436469;32;20490;-81
2022/04/07 11:48:29;;;;;;;;;;;;;;;;;;4449512;32;20033;-88
2022/04/07 11:51:00;;;;;;;17.77;3.78;;;;;;;;;;4437508;32;19967;-86
2022/04/07 11:53:27;;;;;;;17.08;4.07;;;;;;;;;;4421319;32;20116;-86
2022/04/07 11:55:53;;;;;;;14.50;3.50;;;;;;;;;;4423953;32;20060;-83
2022/04/07 11:58:18;;;;;;;;;;;;;;;;;;4438045;32;20105;-79
2022/04/07 12:00:46;;;;;;;16.98;4.45;;;;;;;;;;4438237;32;19990;-82
2022/04/07 12:03:17;;;;;;;17.27;4.78;;;;;;;;;;4437977;32;20061;-82
2022/04/07 12:05:47;;;;;;;13.32;3.92;;;;;;;;;;4438458;32;20081;-83
2022/04/07 12:08:13;;;;;;;15.18;3.62;;;;;;;;;;4437608;32;20191;-83
2022/04/07 12:10:45;;;;;;;16.45;3.30;;;;;;;;;;4437882;32;20420;-82
2022/04/07 12:13:14;;;;;;;17.42;4.07;;;;;;;;;;4424074;32;20021;-81
2022/04/07 12:15:49;;;;;;;15.25;3.37;;;;;;;;;;4423548;32;20022;-81
2022/04/07 12:18:23;;;;;;;22.58;4.28;;;;;;;;;;4423320;32;20029;-81
2022/04/07 12:20:56;;;;;;;15.50;3.53;;;;;;;;;;4424433;32;20313;-82
2022/04/07 12:23:25;;;;;;;15.63;3.83;;;;;;;;;;4423306;32;20048;-81
2022/04/07 12:26:06;;;;;;;20.50;3.87;;;;;;;;;;4437464;32;20038;-79
2022/04/07 12:28:33;;;;;;;14.40;3.87;;;;;;;;;;4423774;32;20044;-83
2022/04/07 12:30:59;;;;;;;19.52;3.42;;;;;;;;;;4423169;32;20046;-84
2022/04/07 12:33:24;;;;;;;;;;;;;;;;;;4437946;32;20034;-82
2022/04/07 12:35:54;;;;;;;16.05;3.47;;;;;;;;;;4423637;32;20363;-82
2022/04/07 12:38:31;;;;;;;23.75;4.35;;;;;;;;;;4422948;32;20056;-82
2022/04/07 12:41:08;;;;;;;18.27;3.53;;;;;;;;;;4437327;32;20086;-81
2022/04/07 12:43:35;;;;;;;;;;;;;;;;;;4423510;32;20112;-80
2022/04/07 12:46:01;;;;;;;19.60;4.05;;;;;;;;;;4419599;32;19933;-81
2022/04/07 12:48:36;;;;;;;;;;;;;;;;;;;;;
2022/04/07 12:54:09;;;;;;;14.45;3.67;;;;;;;;;;4437186;32;20040;-85
2022/04/07 12:56:40;;;;;;;23.33;3.65;;;;;;;;;;4407131;32;20053;-82
2022/04/07 12:59:35;;;;;;;14.90;4.22;;;;;;;;;;4436535;32;20102;-81
2022/04/07 13:02:09;;;;;;;22.83;4.53;;;;;;;;;;4423781;32;20045;-83
2022/04/07 13:05:04;;;;;;;18.45;3.90;;;;;;;;;;4437496;32;20018;-83
2022/04/07 13:07:37;;;;;;;14.98;3.62;;;;;;;;;;4423293;32;20042;-82
2022/04/07 13:10:03;;;;;;;19.37;4.57;;;;;;;;;;4423013;32;20056;-81
2022/04/07 13:12:28;;;;;;;;;;;;;;;;;;4437339;32;20038;-82
2022/04/07 13:15:04;;;;;;;18.87;4.40;;;;;;;;;;4423543;32;20363;-82
2022/04/07 13:17:29;;;;;;;18.37;3.45;;;;;;;;;;4423044;32;20407;-83
2022/04/07 13:20:02;;;;;;;15.45;3.80;;;;;;;;;;4436543;32;20087;-82
2022/04/07 13:22:29;;;;;;;14.57;3.30;;;;;;;;;;4436865;32;20093;-83
2022/04/07 13:25:05;;;;;;;16.08;3.85;;;;;;;;;;4422559;32;20068;-81
2022/04/07 13:27:31;;;;;;;12.27;3.55;;;;;;;;;;4423304;32;20025;-81
2022/04/07 13:29:56;;;;;;;;;;;;;;;;;;4437386;32;20072;-83
2022/04/07 13:32:24;;;;;;;16.48;3.75;;;;;;;;;;4437103;32;19933;-86
2022/04/07 13:34:50;;;;;;;17.17;3.20;;;;;;;;;;4436867;32;20120;-84
2022/04/07 13:37:15;;;;;;;;;;;;;;;;;;4423911;32;20052;-88
2022/04/07 13:39:40;;;;;;;18.50;3.50;;;;;;;;;;4424197;32;19936;-88
2022/04/07 13:42:06;;;;;;;11.32;3.00;;;;;;;;;;4415222;32;20041;-84
2022/04/07 13:44:32;;;;;;;11.15;2.80;;;;;;;;;;4407261;32;20030;-81
2022/04/07 13:46:57;;;;;;;22.92;4.28;;;;;;;;;;4421937;32;20475;-85
2022/04/07 13:49:28;;;;;;;16.48;3.47;;;;;;;;;;4421073;32;20065;-85
2022/04/07 13:51:56;;;;;;;12.80;2.62;;;;;;;;;;4421684;32;20054;-87
2022/04/07 13:54:24;;;;;;;18.05;3.03;;;;;;;;;;4407701;32;20426;-85
2022/04/07 13:56:52;;;;;;;20.88;3.35;;;;;;;;;;4421664;32;20048;-88
2022/04/07 13:59:23;;;;;;;15.15;3.00;;;;;;;;;;4406326;32;20038;-82
2022/04/07 14:01:51;;;;;;;17.37;3.80;;;;;;;;;;4421279;32;20057;-81
2022/04/07 14:04:18;;;;;;;19.67;3.47;;;;;;;;;;4420289;32;20093;-82
2022/04/07 14:06:44;;;;;;;11.90;3.00;;;;;;;;;;4420763;32;20341;-82
2022/04/07 14:09:12;;;;;;;;;;;;;;;;;;4407583;32;20041;-83
2022/04/07 14:11:40;;;;;;;12.73;3.17;;;;;;;;;;4431347;32;19937;-81
2022/04/07 14:14:11;;;;;;;19.62;3.50;;;;;;;;;;4407140;32;20052;-82
2022/04/07 14:16:45;;;;;;;12.82;3.33;;;;;;;;;;4419922;32;20097;-82
2022/04/07 14:19:12;;;;;;;18.52;3.70;;;;;;;;;;4420866;32;20081;-80
2022/04/07 14:21:37;;;;;;;19.27;4.05;;;;;;;;;;4394901;32;20018;-82
2022/04/07 14:24:02;;;;;;;;;;;;;;;;;;4406933;32;20136;-83
2022/04/07 14:26:29;;;;;;;16.92;3.42;;;;;;;;;;4432153;32;19937;-84
2022/04/07 14:28:54;;;;;;;14.35;4.15;;;;;;;;;;4406459;32;20494;-85
2022/04/07 14:31:20;;;;;;;;;;;;;;;;;;4407360;32;20042;-85
2022/04/07 14:33:45;;;;;;;20.42;3.45;;;;;;;;;;4432699;32;19937;-84
2022/04/07 14:36:10;;;;;;;;;;;;;;;;;;4422933;32;20053;-83
2022/04/07 14:38:38;;;;;;;16.20;3.10;;;;;;;;;;4432319;32;19937;-86
2022/04/07 14:41:16;;;;;;;17.60;3.95;;;;;;;;;;4406041;32;20057;-83
2022/04/07 14:43:52;;;;;;;13.62;4.28;;;;;;;;;;4406517;32;20034;-80
2022/04/07 14:46:18;;;;;;;20.27;4.85;;;;;;;;;;4421127;32;20388;-84
2022/04/07 14:48:46;;;;;;;;;;;;;;;;;;4406468;32;20098;-82
2022/04/07 14:51:12;;;;;;;18.02;4.37;;;;;;;;;;4420533;32;19956;-85
2022/04/07 14:53:40;;;;;;;;;;;;;;;;;;4406585;32;20368;-86
2022/04/07 14:56:06;;;;;;;29.05;5.95;;;;;;;;;;4432453;32;19929;-86
2022/04/07 14:58:36;;;;;;;;;;;;;;;;;;4422299;32;20056;-87
2022/04/07 15:01:04;;;;;;;14.25;2.55;;;;;;;;;;4421985;32;19953;-85
2022/04/07 15:03:30;;;;;;;10.65;2.17;;;;;;;;;;4406445;32;20065;-84
2022/04/07 15:05:55;;;;;;;;;;;;;;;;;;4406633;32;20086;-81
2022/04/07 15:08:21;;;;;;;15.00;2.95;;;;;;;;;;4420140;32;19964;-83
2022/04/07 15:10:46;;;;;;;;;;;;;;;;;;4435518;32;20063;-86
2022/04/07 15:13:14;;;;;;;15.02;3.33;;;;;;;;;;4430604;32;19937;-83
2022/04/07 15:15:45;;;;;;;13.68;4.60;;;;;;;;;;4428513;32;20036;-85
2022/04/07 15:18:13;;;;;;;15.57;3.83;;;;;;;;;;4425866;32;20086;-84
2022/04/07 15:20:40;;;;;;;17.92;2.70;;;;;;;;;;4420341;32;20025;-83
2022/04/07 15:23:06;;;;;;;15.90;2.70;;;;;;;;;;4424136;32;20061;-81
2022/04/07 15:25:31;;;;;;;;;;;;;;;;;;4445937;32;20075;-84
2022/04/07 15:27:57;;;;;;;12.88;2.60;;;;;;;;;;4431939;32;19949;-85
2022/04/07 15:30:26;;;;;;;;;;;;;;;;;;4433269;32;20030;-84
2022/04/07 15:32:53;;;;;;;18.00;3.25;;;;;;;;;;4430909;32;19949;-81